createdAt,value
2023-12-11T00:00:04.608Z,1.14
2023-12-11T00:01:06.627Z,1.23
2023-12-11T00:02:08.544Z,2.42
2023-12-11T00:03:10.243Z,2.56
2023-12-11T00:04:14.905Z,2.80
2023-12-11T00:05:16.807Z,1.40
2023-12-11T00:06:18.702Z,2.81
2023-12-11T00:07:20.436Z,2.82
2023-12-11T00:08:22.289Z,2.14
2023-12-11T00:09:24.076Z,1.47
2023-12-11T00:10:25.877Z,2.26
2023-12-11T00:11:27.651Z,2.47
2023-12-11T00:12:29.326Z,2.76
2023-12-11T00:13:31.190Z,0.96
2023-12-11T00:14:32.913Z,2.36
2023-12-11T00:15:34.633Z,1.36
2023-12-11T00:16:36.470Z,2.19
2023-12-11T00:17:38.464Z,2.70
2023-12-11T00:18:40.518Z,0.89
2023-12-11T00:19:42.642Z,2.40
2023-12-11T00:20:44.466Z,2.26
2023-12-11T00:21:46.333Z,2.57
2023-12-11T00:22:48.013Z,0.71
2023-12-11T00:23:49.925Z,2.30
2023-12-11T00:24:51.831Z,1.45
2023-12-11T00:25:53.658Z,0.53
2023-12-11T00:26:55.440Z,2.58
2023-12-11T00:27:57.462Z,2.69
2023-12-11T00:28:59.189Z,2.25
2023-12-11T00:30:01.172Z,0.62
2023-12-11T00:31:03.016Z,1.21
2023-12-11T00:32:05.169Z,1.10
2023-12-11T00:33:07.274Z,1.82
2023-12-11T00:34:09.349Z,2.58
2023-12-11T00:35:11.202Z,1.27
2023-12-11T00:36:13.003Z,0.69
2023-12-11T00:37:14.757Z,2.58
2023-12-11T00:38:16.498Z,1.93
2023-12-11T00:39:18.369Z,1.28
2023-12-11T00:40:20.265Z,0.63
2023-12-11T00:41:22.260Z,0.56
2023-12-11T00:42:24.237Z,0.51
2023-12-11T00:43:26.426Z,1.87
2023-12-11T00:44:28.169Z,2.43
2023-12-11T00:45:30.146Z,0.82
2023-12-11T00:46:31.860Z,1.34
2023-12-11T00:47:33.974Z,1.56
2023-12-11T00:48:36.088Z,2.43
2023-12-11T00:49:38.101Z,0.83
2023-12-11T00:50:39.897Z,1.67
2023-12-11T00:51:41.669Z,2.21
2023-12-11T00:52:43.621Z,1.91
2023-12-11T00:53:46.341Z,0.88
2023-12-11T00:54:48.042Z,0.29
2023-12-11T00:55:49.838Z,1.54
2023-12-11T00:56:52.248Z,1.69
2023-12-11T00:57:54.594Z,2.33
2023-12-11T00:58:56.462Z,1.77
2023-12-11T00:59:58.156Z,0.62
2023-12-11T01:01:00.050Z,0.80
2023-12-11T01:02:02.009Z,0.92
2023-12-11T01:03:04.424Z,0.81
2023-12-11T01:04:06.365Z,0.84
2023-12-11T01:05:08.514Z,1.91
2023-12-11T01:06:10.406Z,2.36
2023-12-11T01:07:12.195Z,0.69
2023-12-11T01:08:14.036Z,2.38
2023-12-11T01:09:15.977Z,0.08
2023-12-11T01:10:17.726Z,2.10
2023-12-11T01:11:19.579Z,-0.09
2023-12-11T01:12:21.462Z,1.94
2023-12-11T01:13:23.326Z,1.27
2023-12-11T01:14:25.288Z,0.38
2023-12-11T01:15:27.366Z,1.79
2023-12-11T01:16:29.083Z,1.98
2023-12-11T01:17:38.741Z,0.24
2023-12-11T01:18:43.404Z,0.03
2023-12-11T01:19:45.463Z,2.03
2023-12-11T01:20:47.384Z,1.69
2023-12-11T01:21:49.226Z,1.68
2023-12-11T01:22:50.993Z,1.32
2023-12-11T01:23:54.900Z,1.14
2023-12-11T01:24:57.438Z,2.13
2023-12-11T01:25:59.216Z,0.52
2023-12-11T01:27:01.247Z,0.54
2023-12-11T01:28:03.132Z,2.14
2023-12-11T01:29:04.939Z,0.50
2023-12-11T01:30:08.050Z,1.20
2023-12-11T01:31:10.547Z,0.22
2023-12-11T01:32:12.424Z,1.92
2023-12-11T01:33:14.706Z,1.91
2023-12-11T01:34:16.708Z,1.92
2023-12-11T01:35:18.698Z,0.35
2023-12-11T01:36:20.614Z,0.40
2023-12-11T01:37:22.513Z,1.21
2023-12-11T01:38:24.315Z,-0.05
2023-12-11T01:39:26.171Z,1.11
2023-12-11T01:40:27.964Z,0.19
2023-12-11T01:41:29.818Z,1.85
2023-12-11T01:42:31.881Z,1.73
2023-12-11T01:43:34.320Z,1.62
2023-12-11T01:44:37.399Z,1.57
2023-12-11T01:45:40.416Z,1.51
2023-12-11T01:46:42.332Z,0.75
2023-12-11T01:47:44.268Z,0.09
2023-12-11T01:48:47.063Z,0.81
2023-12-11T01:49:49.062Z,0.07
2023-12-11T01:50:50.933Z,1.47
2023-12-11T01:51:52.763Z,0.81
2023-12-11T01:52:54.606Z,1.01
2023-12-11T01:53:56.599Z,-0.25
2023-12-11T01:54:58.557Z,1.53
2023-12-11T01:56:00.877Z,0.91
2023-12-11T01:57:02.681Z,1.54
2023-12-11T01:58:05.559Z,-0.46
2023-12-11T01:59:07.909Z,1.50
2023-12-11T02:00:10.300Z,0.79
2023-12-11T02:01:13.418Z,1.48
2023-12-11T02:02:15.117Z,-0.16
2023-12-11T02:03:17.086Z,0.03
2023-12-11T02:04:19.175Z,0.85
2023-12-11T02:05:21.351Z,1.32
2023-12-11T02:06:23.332Z,1.43
2023-12-11T02:07:25.152Z,1.41
2023-12-11T02:08:26.992Z,0.77
2023-12-11T02:09:28.799Z,1.44
2023-12-11T02:10:30.723Z,1.20
2023-12-11T02:11:32.625Z,-0.05
2023-12-11T02:12:34.542Z,1.43
2023-12-11T02:13:36.831Z,1.44
2023-12-11T02:14:38.589Z,0.82
2023-12-11T02:15:45.565Z,0.09
2023-12-11T02:16:47.390Z,1.43
2023-12-11T02:17:49.092Z,1.44
2023-12-11T02:18:51.132Z,1.45
2023-12-11T02:19:53.008Z,0.83
2023-12-11T02:20:54.814Z,0.22
2023-12-11T02:21:57.081Z,1.51
2023-12-11T02:23:01.474Z,1.53
2023-12-11T02:24:19.509Z,1.46
2023-12-11T02:25:21.286Z,1.26
2023-12-11T02:26:23.309Z,1.56
2023-12-11T02:27:25.862Z,1.57
2023-12-11T02:28:27.837Z,1.31
2023-12-11T02:29:29.818Z,1.58
2023-12-11T02:30:38.806Z,1.47
2023-12-11T02:31:40.715Z,1.48
2023-12-11T02:32:42.610Z,0.01
2023-12-11T02:33:44.452Z,0.04
2023-12-11T02:34:48.940Z,-0.08
2023-12-11T02:35:50.948Z,1.16
2023-12-11T02:36:52.801Z,0.22
2023-12-11T02:37:54.863Z,1.49
2023-12-11T02:38:56.999Z,0.88
2023-12-11T02:39:58.821Z,1.47
2023-12-11T02:41:00.826Z,1.18
2023-12-11T02:42:02.605Z,0.75
2023-12-11T02:43:05.086Z,0.80
2023-12-11T02:44:06.702Z,-0.19
2023-12-11T02:45:08.831Z,-0.44
2023-12-11T02:46:10.752Z,-0.13
2023-12-11T02:47:12.392Z,1.13
2023-12-11T02:48:15.629Z,-0.40
2023-12-11T02:49:17.557Z,1.50
2023-12-11T02:50:19.450Z,0.93
2023-12-11T02:51:21.392Z,1.37
2023-12-11T02:52:24.620Z,1.28
2023-12-11T02:53:26.430Z,1.03
2023-12-11T02:54:28.292Z,1.37
2023-12-11T02:55:30.442Z,1.26
2023-12-11T02:56:32.285Z,0.07
2023-12-11T02:57:34.107Z,1.04
2023-12-11T02:58:36.234Z,1.41
2023-12-11T02:59:38.628Z,-0.19
2023-12-11T03:00:40.631Z,0.90
2023-12-11T03:01:42.529Z,-0.29
2023-12-11T03:02:44.436Z,1.04
2023-12-11T03:03:46.151Z,0.12
2023-12-11T03:04:48.158Z,1.12
2023-12-11T03:05:50.692Z,1.49
2023-12-11T03:06:53.329Z,1.52
2023-12-11T03:07:55.177Z,0.15
2023-12-11T03:08:57.034Z,1.42
2023-12-11T03:09:58.736Z,0.95
2023-12-11T03:11:00.620Z,-0.19
2023-12-11T03:12:02.434Z,-0.58
2023-12-11T03:13:04.185Z,1.42
2023-12-11T03:14:05.933Z,1.24
2023-12-11T03:15:09.293Z,0.03
2023-12-11T03:16:14.775Z,-0.30
2023-12-11T03:17:16.621Z,-0.06
2023-12-11T03:18:18.395Z,-0.27
2023-12-11T03:19:20.229Z,1.26
2023-12-11T03:20:22.052Z,1.27
2023-12-11T03:21:23.960Z,-0.33
2023-12-11T03:22:26.704Z,-1.50
2023-12-11T03:23:28.616Z,0.72
2023-12-11T03:24:30.383Z,0.59
2023-12-11T03:25:32.111Z,0.53
2023-12-11T03:26:33.878Z,1.08
2023-12-11T03:27:35.691Z,0.70
2023-12-11T03:28:37.384Z,1.13
2023-12-11T03:29:39.126Z,0.23
2023-12-11T03:30:41.045Z,-0.41
2023-12-11T03:31:42.841Z,-0.37
2023-12-11T03:32:44.946Z,1.14
2023-12-11T03:33:46.881Z,0.99
2023-12-11T03:34:48.753Z,1.28
2023-12-11T03:35:50.433Z,0.48
2023-12-11T03:36:52.228Z,-0.51
2023-12-11T03:37:53.994Z,0.42
2023-12-11T03:38:56.650Z,-1.20
2023-12-11T03:39:58.395Z,-0.47
2023-12-11T03:41:00.126Z,-0.29
2023-12-11T03:42:02.155Z,1.30
2023-12-11T03:43:04.005Z,1.30
2023-12-11T03:44:05.869Z,-0.24
2023-12-11T03:45:07.788Z,1.12
2023-12-11T03:46:09.608Z,-0.32
2023-12-11T03:47:11.944Z,1.14
2023-12-11T03:48:14.203Z,-0.36
2023-12-11T03:49:21.267Z,-0.40
2023-12-11T03:50:23.188Z,1.18
2023-12-11T03:51:25.029Z,-0.44
2023-12-11T03:52:26.740Z,1.19
2023-12-11T03:53:28.500Z,0.84
2023-12-11T03:54:30.399Z,0.50
2023-12-11T03:55:32.174Z,-0.93
2023-12-11T03:56:34.167Z,-0.35
2023-12-11T03:57:36.018Z,1.17
2023-12-11T03:58:37.921Z,-0.08
2023-12-11T03:59:39.839Z,-1.82
2023-12-11T04:00:41.799Z,1.13
2023-12-11T04:01:43.807Z,-0.49
2023-12-11T04:02:45.765Z,0.22
2023-12-11T04:03:47.692Z,0.73
2023-12-11T04:04:49.807Z,0.74
2023-12-11T04:05:51.814Z,0.01
2023-12-11T04:06:53.582Z,-2.00
2023-12-11T04:07:55.457Z,-1.07
2023-12-11T04:08:57.200Z,0.47
2023-12-11T04:09:58.995Z,0.46
2023-12-11T04:11:00.872Z,-0.90
2023-12-11T04:12:02.675Z,0.41
2023-12-11T04:13:04.441Z,-1.03
2023-12-11T04:14:06.261Z,0.61
2023-12-11T04:15:08.639Z,-0.99
2023-12-11T04:16:10.698Z,-1.92
2023-12-11T04:17:12.512Z,-0.78
2023-12-11T04:18:14.362Z,-1.24
2023-12-11T04:19:16.242Z,-0.80
2023-12-11T04:20:18.125Z,-1.07
2023-12-11T04:21:19.956Z,0.58
2023-12-11T04:22:21.829Z,0.69
2023-12-11T04:23:23.522Z,0.69
2023-12-11T04:24:25.254Z,-1.32
2023-12-11T04:25:27.123Z,-1.21
2023-12-11T04:26:28.828Z,0.02
2023-12-11T04:27:30.665Z,-0.96
2023-12-11T04:28:32.690Z,0.19
2023-12-11T04:29:34.630Z,-0.87
2023-12-11T04:30:36.456Z,0.37
2023-12-11T04:31:38.304Z,-0.73
2023-12-11T04:32:40.131Z,0.65
2023-12-11T04:33:42.055Z,0.60
2023-12-11T04:34:44.062Z,-0.03
2023-12-11T04:35:46.210Z,0.52
2023-12-11T04:36:48.051Z,0.62
2023-12-11T04:37:49.721Z,-0.15
2023-12-11T04:38:51.448Z,-0.96
2023-12-11T04:39:54.384Z,0.68
2023-12-11T04:40:56.332Z,0.68
2023-12-11T04:41:58.120Z,0.63
2023-12-11T04:42:59.749Z,-0.20
2023-12-11T04:44:01.607Z,0.70
2023-12-11T04:45:03.539Z,-1.02
2023-12-11T04:46:05.398Z,-1.08
2023-12-11T04:47:08.241Z,0.70
2023-12-11T04:48:10.009Z,-1.19
2023-12-11T04:49:11.811Z,0.24
2023-12-11T04:50:13.675Z,-0.32
2023-12-11T04:51:15.369Z,0.50
2023-12-11T04:52:18.716Z,0.52
2023-12-11T04:53:20.902Z,-1.35
2023-12-11T04:54:22.691Z,0.07
2023-12-11T04:55:24.868Z,0.57
2023-12-11T04:56:26.772Z,0.53
2023-12-11T04:57:29.011Z,-0.96
2023-12-11T04:58:31.046Z,0.46
2023-12-11T04:59:32.801Z,0.57
2023-12-11T05:00:34.568Z,-0.97
2023-12-11T05:01:36.387Z,-1.14
2023-12-11T05:02:38.241Z,-2.28
2023-12-11T05:03:40.078Z,0.62
2023-12-11T05:04:42.171Z,0.49
2023-12-11T05:05:44.023Z,0.61
2023-12-11T05:06:46.025Z,0.51
2023-12-11T05:07:47.755Z,0.16
2023-12-11T05:08:49.565Z,-1.75
2023-12-11T05:09:51.891Z,-2.08
2023-12-11T05:10:53.765Z,0.18
2023-12-11T05:11:55.473Z,0.40
2023-12-11T05:12:57.195Z,-0.76
2023-12-11T05:13:58.869Z,0.55
2023-12-11T05:15:03.509Z,-0.15
2023-12-11T05:16:05.830Z,-1.15
2023-12-11T05:17:08.061Z,-1.47
2023-12-11T05:18:09.770Z,0.51
2023-12-11T05:19:11.666Z,-0.38
2023-12-11T05:20:14.384Z,0.40
2023-12-11T05:21:16.182Z,0.37
2023-12-11T05:22:18.066Z,0.30
2023-12-11T05:23:19.820Z,0.15
2023-12-11T05:24:21.513Z,-0.22
2023-12-11T05:25:23.282Z,-1.94
2023-12-11T05:26:25.029Z,0.13
2023-12-11T05:27:27.176Z,0.09
2023-12-11T05:28:29.102Z,-0.82
2023-12-11T05:29:30.856Z,-0.12
2023-12-11T05:30:32.868Z,-0.38
2023-12-11T05:31:34.738Z,-2.48
2023-12-11T05:32:36.658Z,-1.64
2023-12-11T05:33:38.693Z,0.11
2023-12-11T05:34:40.427Z,-1.34
2023-12-11T05:35:42.579Z,0.09
2023-12-11T05:36:44.626Z,-0.56
2023-12-11T05:37:46.473Z,-1.47
2023-12-11T05:38:48.504Z,-0.46
2023-12-11T05:39:57.822Z,-1.14
2023-12-11T05:41:12.002Z,-0.61
2023-12-11T05:42:13.772Z,-0.08
2023-12-11T05:43:15.549Z,-0.14
2023-12-11T05:44:17.272Z,-1.75
2023-12-11T05:45:19.183Z,-2.01
2023-12-11T05:46:21.104Z,-1.91
2023-12-11T05:47:22.818Z,-2.20
2023-12-11T05:48:24.730Z,-0.21
2023-12-11T05:49:26.703Z,-2.02
2023-12-11T05:50:29.837Z,-0.45
2023-12-11T05:51:32.510Z,-1.28
2023-12-11T05:52:34.475Z,-2.45
2023-12-11T05:53:36.199Z,-0.57
2023-12-11T05:54:38.011Z,0.00
2023-12-11T05:55:39.857Z,-0.53
2023-12-11T05:56:41.636Z,-1.44
2023-12-11T05:57:44.988Z,-1.97
2023-12-11T05:58:47.348Z,-1.16
2023-12-11T05:59:49.199Z,-1.88
2023-12-11T06:00:50.888Z,-1.72
2023-12-11T06:01:52.855Z,0.09
2023-12-11T06:02:54.722Z,0.21
2023-12-11T06:03:56.884Z,-1.54
2023-12-11T06:04:58.752Z,0.17
2023-12-11T06:06:00.604Z,-0.25
2023-12-11T06:07:02.253Z,-0.45
2023-12-11T06:08:05.164Z,0.19
2023-12-11T06:09:06.844Z,0.18
2023-12-11T06:10:08.983Z,-0.95
2023-12-11T06:11:11.691Z,0.19
2023-12-11T06:12:13.478Z,-0.36
2023-12-11T06:13:15.343Z,-2.15
2023-12-11T06:14:17.105Z,0.18
2023-12-11T06:15:18.766Z,-1.22
2023-12-11T06:16:21.691Z,0.24
2023-12-11T06:17:23.457Z,-0.31
2023-12-11T06:18:25.302Z,0.46
2023-12-11T06:19:27.151Z,-0.41
2023-12-11T06:20:28.933Z,0.07
2023-12-11T06:21:30.713Z,0.13
2023-12-11T06:22:32.429Z,0.50
2023-12-11T06:23:34.136Z,-0.01
2023-12-11T06:24:35.872Z,-1.62
2023-12-11T06:25:37.593Z,0.55
2023-12-11T06:26:43.411Z,-1.04
2023-12-11T06:27:45.660Z,0.57
2023-12-11T06:28:47.457Z,0.11
2023-12-11T06:29:49.208Z,-0.81
2023-12-11T06:30:50.939Z,0.43
2023-12-11T06:31:53.114Z,-2.48
2023-12-11T06:32:54.843Z,0.16
2023-12-11T06:33:57.300Z,-0.83
2023-12-11T06:34:59.271Z,0.54
2023-12-11T06:36:01.060Z,-1.62
2023-12-11T06:37:02.991Z,-0.94
2023-12-11T06:38:05.232Z,-0.72
2023-12-11T06:39:06.986Z,-1.24
2023-12-11T06:40:10.525Z,-0.20
2023-12-11T06:41:12.358Z,-0.65
2023-12-11T06:42:14.049Z,-1.08
2023-12-11T06:43:15.787Z,-0.43
2023-12-11T06:44:17.597Z,0.89
2023-12-11T06:45:19.428Z,-0.98
2023-12-11T06:46:21.617Z,0.75
2023-12-11T06:47:23.424Z,-1.20
2023-12-11T06:48:25.379Z,0.46
2023-12-11T06:49:27.226Z,0.26
2023-12-11T06:50:29.350Z,0.54
2023-12-11T06:51:31.152Z,0.93
2023-12-11T06:52:32.868Z,0.97
2023-12-11T06:53:34.622Z,-0.59
2023-12-11T06:54:36.385Z,0.95
2023-12-11T06:55:38.126Z,0.47
2023-12-11T06:56:40.162Z,0.28
2023-12-11T06:57:41.887Z,1.05
2023-12-11T06:58:43.630Z,-0.33
2023-12-11T06:59:45.312Z,1.37
2023-12-11T07:00:47.115Z,1.04
2023-12-11T07:01:49.125Z,1.21
2023-12-11T07:02:51.113Z,-0.95
2023-12-11T07:03:54.887Z,-0.24
2023-12-11T07:04:58.103Z,1.86
2023-12-11T07:06:00.969Z,1.91
2023-12-11T07:07:02.948Z,0.47
2023-12-11T07:08:05.685Z,0.81
2023-12-11T07:09:07.537Z,-0.10
2023-12-11T07:10:09.759Z,0.94
2023-12-11T07:11:11.478Z,1.79
2023-12-11T07:12:13.253Z,0.68
2023-12-11T07:13:15.069Z,1.96
2023-12-11T07:14:16.851Z,1.10
2023-12-11T07:15:20.861Z,1.60
2023-12-11T07:16:25.087Z,2.50
2023-12-11T07:17:27.161Z,2.62
2023-12-11T07:18:29.006Z,0.80
2023-12-11T07:19:31.067Z,1.94
2023-12-11T07:20:34.475Z,3.16
2023-12-11T07:21:36.498Z,3.02
2023-12-11T07:22:38.404Z,3.88
2023-12-11T07:23:40.383Z,2.81
2023-12-11T07:24:42.231Z,5.16
2023-12-11T07:25:44.084Z,5.32
2023-12-11T07:26:45.846Z,3.86
2023-12-11T07:27:47.903Z,3.80
2023-12-11T07:28:50.125Z,3.84
2023-12-11T07:29:52.442Z,5.47
2023-12-11T07:30:54.331Z,3.21
2023-12-11T07:31:56.406Z,5.67
2023-12-11T07:32:59.292Z,3.89
2023-12-11T07:34:01.396Z,4.92
2023-12-11T07:35:04.161Z,6.20
2023-12-11T07:36:06.545Z,7.11
2023-12-11T07:37:08.362Z,5.90
2023-12-11T07:38:10.210Z,6.89
2023-12-11T07:39:11.965Z,7.58
2023-12-11T07:40:14.006Z,7.78
2023-12-11T07:41:23.873Z,8.24
2023-12-11T07:42:25.542Z,9.11
2023-12-11T07:43:27.436Z,8.34
2023-12-11T07:44:29.793Z,8.55
2023-12-11T07:45:31.809Z,8.33
2023-12-11T07:46:33.581Z,8.25
2023-12-11T07:47:35.915Z,8.92
2023-12-11T07:48:38.387Z,8.63
2023-12-11T07:49:41.111Z,10.86
2023-12-11T07:50:42.987Z,11.06
2023-12-11T07:51:45.123Z,10.76
2023-12-11T07:52:46.973Z,10.84
2023-12-11T07:53:48.922Z,11.37
2023-12-11T07:54:50.791Z,9.48
2023-12-11T07:55:52.951Z,9.20
2023-12-11T07:56:54.904Z,10.14
2023-12-11T07:57:56.624Z,9.09
2023-12-11T07:58:58.472Z,10.98
2023-12-11T08:00:00.498Z,9.82
2023-12-11T08:01:02.375Z,10.48
2023-12-11T08:02:04.491Z,10.51
2023-12-11T08:03:07.503Z,11.81
2023-12-11T08:04:09.739Z,11.92
2023-12-11T08:05:11.643Z,11.08
2023-12-11T08:06:13.665Z,10.77
2023-12-11T08:07:16.580Z,11.82
2023-12-11T08:08:18.339Z,11.39
2023-12-11T08:09:20.125Z,12.07
2023-12-11T08:10:22.011Z,12.64
2023-12-11T08:11:29.810Z,11.04
2023-12-11T08:12:34.545Z,11.93
2023-12-11T08:13:36.454Z,12.13
2023-12-11T08:14:39.661Z,11.86
2023-12-11T08:15:42.437Z,12.41
2023-12-11T08:16:44.270Z,13.49
2023-12-11T08:17:46.212Z,11.95
2023-12-11T08:18:49.514Z,13.55
2023-12-11T08:19:52.206Z,12.08
2023-12-11T08:20:54.041Z,12.50
2023-12-11T08:21:55.871Z,13.70
2023-12-11T08:22:57.626Z,12.83
2023-12-11T08:23:59.718Z,14.56
2023-12-11T08:25:01.639Z,14.74
2023-12-11T08:26:03.484Z,14.73
2023-12-11T08:27:08.621Z,14.08
2023-12-11T08:28:10.523Z,15.23
2023-12-11T08:29:12.273Z,14.84
2023-12-11T08:30:14.159Z,14.61
2023-12-11T08:31:16.826Z,13.57
2023-12-11T08:32:18.659Z,14.39
2023-12-11T08:33:20.580Z,14.27
2023-12-11T08:34:22.581Z,15.36
2023-12-11T08:35:24.346Z,15.36
2023-12-11T08:36:26.238Z,14.32
2023-12-11T08:37:27.988Z,15.37
2023-12-11T08:38:29.863Z,15.51
2023-12-11T08:39:31.585Z,14.64
2023-12-11T08:40:33.419Z,15.18
2023-12-11T08:41:35.450Z,15.80
2023-12-11T08:42:40.959Z,15.83
2023-12-11T08:43:44.165Z,14.17
2023-12-11T08:44:45.902Z,15.19
2023-12-11T08:45:47.865Z,14.70
2023-12-11T08:46:49.703Z,14.45
2023-12-11T08:47:51.479Z,15.13
2023-12-11T08:48:54.328Z,14.28
2023-12-11T08:49:56.702Z,15.67
2023-12-11T08:50:58.594Z,15.15
2023-12-11T08:52:01.760Z,15.83
2023-12-11T08:53:04.917Z,14.91
2023-12-11T08:54:06.873Z,16.19
2023-12-11T08:55:08.994Z,14.94
2023-12-11T08:56:12.043Z,13.92
2023-12-11T08:57:14.051Z,14.75
2023-12-11T08:58:16.037Z,15.83
2023-12-11T08:59:18.024Z,16.33
2023-12-11T09:00:20.114Z,16.38
2023-12-11T09:01:22.098Z,14.53
2023-12-11T09:02:24.851Z,16.45
2023-12-11T09:03:27.296Z,16.50
2023-12-11T09:04:30.072Z,16.69
2023-12-11T09:05:31.796Z,15.66
2023-12-11T09:06:33.473Z,16.05
2023-12-11T09:07:36.154Z,16.44
2023-12-11T09:08:37.975Z,15.39
2023-12-11T09:09:40.509Z,15.22
2023-12-11T09:10:42.599Z,15.29
2023-12-11T09:11:44.505Z,15.90
2023-12-11T09:12:46.645Z,14.79
2023-12-11T09:13:48.423Z,15.13
2023-12-11T09:14:50.727Z,15.68
2023-12-11T09:15:52.713Z,16.22
2023-12-11T09:16:54.486Z,16.25
2023-12-11T09:17:56.363Z,17.09
2023-12-11T09:18:58.294Z,16.68
2023-12-11T09:20:00.567Z,16.12
2023-12-11T09:21:02.457Z,16.55
2023-12-11T09:22:04.338Z,15.66
2023-12-11T09:23:06.180Z,15.74
2023-12-11T09:24:08.253Z,16.97
2023-12-11T09:25:10.576Z,16.49
2023-12-11T09:26:12.377Z,17.70
2023-12-11T09:27:14.155Z,16.36
2023-12-11T09:28:16.633Z,17.43
2023-12-11T09:29:19.054Z,16.46
2023-12-11T09:30:20.783Z,17.21
2023-12-11T09:31:25.605Z,16.33
2023-12-11T09:32:29.045Z,16.36
2023-12-11T09:33:32.122Z,17.23
2023-12-11T09:34:36.927Z,16.54
2023-12-11T09:35:38.958Z,15.98
2023-12-11T09:36:40.861Z,15.17
2023-12-11T09:37:42.774Z,15.38
2023-12-11T09:38:44.682Z,17.80
2023-12-11T09:39:48.607Z,18.02
2023-12-11T09:40:50.461Z,17.03
2023-12-11T09:41:53.253Z,18.33
2023-12-11T09:42:55.174Z,17.17
2023-12-11T09:43:58.414Z,17.50
2023-12-11T09:45:00.920Z,18.29
2023-12-11T09:46:06.531Z,17.73
2023-12-11T09:47:15.547Z,18.91
2023-12-11T09:48:17.434Z,18.20
2023-12-11T09:49:19.937Z,17.92
2023-12-11T09:50:21.903Z,18.85
2023-12-11T09:51:23.805Z,18.35
2023-12-11T09:52:25.931Z,18.39
2023-12-11T09:53:31.409Z,19.48
2023-12-11T09:54:33.212Z,18.99
2023-12-11T09:55:35.833Z,18.15
2023-12-11T09:56:39.796Z,18.44
2023-12-11T09:57:43.518Z,19.57
2023-12-11T09:58:46.234Z,18.78
2023-12-11T09:59:51.452Z,18.51
2023-12-11T10:00:54.061Z,19.13
2023-12-11T10:01:56.785Z,18.48
2023-12-11T10:03:01.959Z,19.22
2023-12-11T10:04:04.031Z,18.43
2023-12-11T10:05:08.926Z,19.79
2023-12-11T10:06:10.889Z,19.19
2023-12-11T10:07:12.777Z,18.68
2023-12-11T10:08:17.314Z,18.43
2023-12-11T10:09:34.525Z,19.08
2023-12-11T10:10:39.549Z,18.36
2023-12-11T10:11:41.410Z,18.88
2023-12-11T10:12:44.014Z,19.16
2023-12-11T10:13:51.123Z,19.16
2023-12-11T10:15:02.365Z,18.29
2023-12-11T10:16:06.594Z,19.26
2023-12-11T10:17:19.118Z,18.27
2023-12-11T10:18:20.991Z,17.39
2023-12-11T10:19:33.819Z,17.19
2023-12-11T10:20:40.589Z,17.28
2023-12-11T10:21:42.882Z,18.02
2023-12-11T10:22:44.760Z,16.92
2023-12-11T10:24:02.925Z,16.91
2023-12-11T10:25:05.140Z,17.24
2023-12-11T10:26:07.813Z,17.49
2023-12-11T10:27:09.449Z,16.27
2023-12-11T10:28:13.302Z,16.87
2023-12-11T10:29:22.564Z,17.80
2023-12-11T10:30:24.890Z,16.22
2023-12-11T10:31:36.710Z,16.02
2023-12-11T10:32:39.384Z,17.78
2023-12-11T10:33:49.957Z,16.43
2023-12-11T10:34:53.076Z,16.56
2023-12-11T10:36:11.844Z,17.41
2023-12-11T10:37:15.289Z,16.46
2023-12-11T10:38:47.443Z,17.22
2023-12-11T10:39:54.147Z,15.90
2023-12-11T10:40:57.640Z,17.15
2023-12-11T10:42:13.158Z,16.25
2023-12-11T10:43:15.045Z,16.03
2023-12-11T10:44:42.888Z,15.72
2023-12-11T10:45:51.650Z,15.41
2023-12-11T10:46:58.577Z,15.63
2023-12-11T10:48:04.958Z,16.44
2023-12-11T10:49:07.225Z,16.11
2023-12-11T10:50:09.261Z,15.93
2023-12-11T10:51:11.592Z,15.47
2023-12-11T10:52:13.623Z,15.64
2023-12-11T10:53:17.070Z,14.69
2023-12-11T10:54:21.162Z,13.90
2023-12-11T10:55:23.289Z,15.55
2023-12-11T10:56:25.596Z,13.89
2023-12-11T10:57:29.889Z,14.64
2023-12-11T10:58:31.905Z,14.04
2023-12-11T10:59:35.302Z,13.76
2023-12-11T11:00:39.636Z,14.50
2023-12-11T11:01:46.075Z,13.84
2023-12-11T11:02:52.298Z,12.95
2023-12-11T11:03:54.368Z,12.44
2023-12-11T11:04:57.698Z,12.73
2023-12-11T11:06:00.625Z,13.18
2023-12-11T11:07:15.258Z,12.93
2023-12-11T11:08:38.404Z,12.65
2023-12-11T11:09:59.127Z,12.29
2023-12-11T11:11:15.236Z,10.68
2023-12-11T11:12:41.540Z,12.40
2023-12-11T11:14:25.235Z,12.33
2023-12-11T11:15:27.485Z,12.18
2023-12-11T11:16:54.573Z,12.17
2023-12-11T11:18:02.076Z,11.94
2023-12-11T11:19:08.625Z,10.18
2023-12-11T11:20:14.876Z,11.73
2023-12-11T11:21:16.706Z,10.64
2023-12-11T11:22:31.164Z,11.61
2023-12-11T11:23:43.508Z,10.00
2023-12-11T11:24:45.444Z,10.70
2023-12-11T11:25:54.616Z,9.96
2023-12-11T11:26:57.773Z,9.87
2023-12-11T11:28:00.269Z,11.13
2023-12-11T11:29:06.330Z,10.45
2023-12-11T11:30:09.550Z,11.06
2023-12-11T11:31:20.257Z,10.99
2023-12-11T11:32:56.870Z,10.61
2023-12-11T11:34:00.184Z,8.96
2023-12-11T11:35:02.077Z,10.49
2023-12-11T11:36:04.094Z,10.22
2023-12-11T11:37:05.950Z,10.40
2023-12-11T11:38:07.846Z,9.47
2023-12-11T11:39:09.597Z,9.87
2023-12-11T11:40:12.140Z,9.32
2023-12-11T11:41:27.852Z,10.48
2023-12-11T11:42:33.008Z,10.57
2023-12-11T11:43:34.855Z,10.34
2023-12-11T11:44:36.821Z,10.04
2023-12-11T11:45:39.112Z,10.04
2023-12-11T11:47:01.353Z,8.41
2023-12-11T11:48:05.201Z,9.81
2023-12-11T11:49:07.204Z,9.82
2023-12-11T11:50:11.665Z,9.89
2023-12-11T11:51:13.540Z,9.12
2023-12-11T11:52:20.235Z,8.45
2023-12-11T11:53:22.651Z,8.75
2023-12-11T11:54:25.937Z,8.69
2023-12-11T11:55:29.052Z,8.50
2023-12-11T11:56:31.067Z,8.56
2023-12-11T11:57:34.193Z,8.47
2023-12-11T11:58:36.045Z,8.70
2023-12-11T11:59:46.715Z,9.80
2023-12-11T12:00:50.471Z,8.91
2023-12-11T12:01:54.439Z,8.28
2023-12-11T12:03:21.301Z,8.70
2023-12-11T12:04:36.169Z,8.90
2023-12-11T12:05:38.552Z,8.74
2023-12-11T12:06:40.315Z,10.15
2023-12-11T12:07:42.725Z,9.15
2023-12-11T12:08:44.602Z,10.18
2023-12-11T12:09:53.417Z,8.62
2023-12-11T12:10:58.358Z,9.03
2023-12-11T12:12:01.942Z,8.55
2023-12-11T12:13:05.551Z,9.01
2023-12-11T12:14:13.990Z,10.13
2023-12-11T12:15:15.887Z,9.34
2023-12-11T12:16:30.326Z,8.04
2023-12-11T12:17:36.037Z,8.75
2023-12-11T12:18:49.748Z,8.92
2023-12-11T12:19:51.679Z,9.13
2023-12-11T12:21:06.240Z,10.07
2023-12-11T12:22:10.393Z,9.99
2023-12-11T12:23:12.329Z,8.15
2023-12-11T12:24:14.024Z,9.95
2023-12-11T12:25:18.549Z,9.30
2023-12-11T12:26:20.284Z,8.48
2023-12-11T12:27:27.124Z,9.36
2023-12-11T12:28:29.078Z,9.27
2023-12-11T12:29:33.263Z,9.46
2023-12-11T12:30:35.830Z,10.09
2023-12-11T12:31:39.558Z,8.57
2023-12-11T12:32:41.482Z,10.02
2023-12-11T12:33:43.561Z,9.54
2023-12-11T12:34:47.809Z,9.88
2023-12-11T12:35:50.230Z,8.51
2023-12-11T12:36:55.707Z,9.26
2023-12-11T12:37:58.181Z,7.89
2023-12-11T12:39:01.086Z,9.94
2023-12-11T12:40:07.400Z,8.86
2023-12-11T12:41:12.993Z,9.95
2023-12-11T12:42:14.981Z,9.40
2023-12-11T12:43:16.750Z,8.57
2023-12-11T12:44:21.480Z,10.06
2023-12-11T12:45:35.653Z,8.79
2023-12-11T12:46:42.776Z,9.39
2023-12-11T12:47:48.213Z,9.34
2023-12-11T12:48:50.079Z,8.97
2023-12-11T12:49:51.963Z,9.43
2023-12-11T12:51:11.186Z,9.95
2023-12-11T12:52:22.173Z,9.87
2023-12-11T12:53:26.342Z,9.69
2023-12-11T12:54:31.406Z,8.69
2023-12-11T12:55:34.095Z,9.33
2023-12-11T12:56:35.899Z,9.76
2023-12-11T12:57:37.708Z,7.58
2023-12-11T12:58:40.011Z,9.78
2023-12-11T12:59:42.148Z,9.62
2023-12-11T13:00:44.188Z,9.63
2023-12-11T13:01:46.294Z,9.69
2023-12-11T13:02:52.009Z,8.92
2023-12-11T13:04:00.830Z,9.04
2023-12-11T13:05:02.711Z,9.71
2023-12-11T13:06:06.268Z,9.70
2023-12-11T13:07:12.062Z,8.97
2023-12-11T13:08:16.149Z,8.09
2023-12-11T13:09:33.342Z,8.31
2023-12-11T13:10:35.193Z,9.57
2023-12-11T13:11:43.304Z,9.55
2023-12-11T13:12:45.135Z,9.51
2023-12-11T13:13:56.565Z,9.42
2023-12-11T13:14:58.319Z,7.57
2023-12-11T13:16:00.189Z,8.19
2023-12-11T13:17:01.874Z,8.01
2023-12-11T13:18:03.595Z,9.14
2023-12-11T13:19:05.506Z,8.45
2023-12-11T13:20:08.913Z,8.98
2023-12-11T13:21:10.603Z,8.77
2023-12-11T13:22:12.889Z,9.00
2023-12-11T13:23:14.759Z,8.89
2023-12-11T13:24:16.739Z,8.78
2023-12-11T13:25:18.419Z,7.31
2023-12-11T13:26:20.136Z,8.70
2023-12-11T13:27:26.428Z,8.69
2023-12-11T13:28:28.109Z,8.71
2023-12-11T13:29:29.711Z,8.63
2023-12-11T13:30:32.065Z,7.26
2023-12-11T13:31:33.740Z,7.14
2023-12-11T13:32:35.541Z,8.30
2023-12-11T13:33:37.367Z,7.59
2023-12-11T13:34:39.172Z,7.44
2023-12-11T13:35:40.892Z,7.82
2023-12-11T13:36:43.100Z,8.02
2023-12-11T13:37:45.802Z,8.80
2023-12-11T13:38:47.479Z,8.31
2023-12-11T13:39:49.158Z,8.82
2023-12-11T13:40:51.015Z,8.04
2023-12-11T13:41:52.685Z,8.92
2023-12-11T13:42:55.644Z,7.64
2023-12-11T13:43:57.689Z,8.92
2023-12-11T13:44:59.943Z,8.30
2023-12-11T13:46:02.107Z,8.76
2023-12-11T13:47:03.923Z,8.99
2023-12-11T13:48:05.733Z,7.15